Time;durP1;ratioP1;P1;durP2;ratioP2;P2;SDS_P1;SDS_P2;PMS_P1;PMS_P2;Temp;Humidity;BMP_temperature;BMP_pressure;BME280_temperature;BME280_humidity;BME280_pressure;Samples;Min_cycle;Max_cycle;Signal;HPM_P1;HPM_P2
2022/11/12 00:00:37;;;;;;;0.10;0.10;;;8.30;99.90;;;;;;5083954;28;20040;-73
2022/11/12 00:03:03;;;;;;;0.20;0.20;;;8.30;99.90;;;;;;5082754;28;20106;-73
2022/11/12 00:05:28;;;;;;;0.20;0.20;;;8.30;99.90;;;;;;5080566;28;20474;-73
2022/11/12 00:07:54;;;;;;;0.10;0.10;;;8.30;99.90;;;;;;5075724;28;20101;-73
2022/11/12 00:10:20;;;;;;;0.20;0.20;;;8.30;99.90;;;;;;5082419;28;20118;-72
2022/11/12 00:12:46;;;;;;;0.20;0.20;;;8.30;99.90;;;;;;5076287;28;20119;-74
2022/11/12 00:15:12;;;;;;;0.10;0.10;;;8.40;99.90;;;;;;5079666;28;20139;-73
2022/11/12 00:17:38;;;;;;;0.20;0.20;;;8.40;99.90;;;;;;5081524;28;20538;-73
2022/11/12 00:20:05;;;;;;;0.10;0.10;;;8.40;99.90;;;;;;5079140;28;20043;-73
2022/11/12 00:22:31;;;;;;;0.10;0.10;;;8.40;99.90;;;;;;5084055;28;20404;-73
2022/11/12 00:24:56;;;;;;;0.10;0.10;;;8.70;99.90;;;;;;5080661;28;20034;-74
2022/11/12 00:27:25;;;;;;;0.20;0.20;;;8.50;99.90;;;;;;5081986;28;20052;-73
2022/11/12 00:29:51;;;;;;;0.17;0.17;;;8.50;99.90;;;;;;5084252;28;20040;-73
2022/11/12 00:32:16;;;;;;;0.17;0.17;;;8.50;99.90;;;;;;5087051;28;20129;-73
2022/11/12 00:34:42;;;;;;;0.20;0.20;;;8.50;99.90;;;;;;5089381;28;20076;-73
2022/11/12 00:37:08;;;;;;;0.20;0.20;;;8.50;99.90;;;;;;5086187;28;20121;-73
2022/11/12 00:39:33;;;;;;;0.20;0.20;;;8.50;99.90;;;;;;5089209;28;20518;-73
2022/11/12 00:41:59;;;;;;;0.20;0.20;;;8.50;99.90;;;;;;5088271;28;20051;-73
2022/11/12 00:44:25;;;;;;;0.17;0.17;;;8.60;99.90;;;;;;5087404;28;20119;-73
2022/11/12 00:46:50;;;;;;;0.20;0.20;;;8.50;99.90;;;;;;5082220;28;20047;-73
2022/11/12 00:49:16;;;;;;;0.20;0.20;;;8.50;99.90;;;;;;5086738;28;20036;-73
2022/11/12 00:51:42;;;;;;;0.20;0.20;;;8.50;99.90;;;;;;5088219;28;20054;-73
2022/11/12 00:54:08;;;;;;;0.20;0.20;;;8.50;99.90;;;;;;5087463;28;20448;-73
2022/11/12 00:56:33;;;;;;;0.20;0.20;;;8.50;99.90;;;;;;5087865;28;20043;-73
2022/11/12 00:58:59;;;;;;;0.20;0.20;;;8.50;99.90;;;;;;5086808;28;20552;-72
2022/11/12 01:01:25;;;;;;;0.17;0.17;;;8.50;99.90;;;;;;5088831;28;20132;-73
2022/11/12 01:03:51;;;;;;;0.20;0.20;;;8.50;99.90;;;;;;5086994;28;20040;-73
2022/11/12 01:06:22;;;;;;;0.20;0.20;;;8.50;99.90;;;;;;5087390;28;20040;-73
2022/11/12 01:08:48;;;;;;;0.20;0.20;;;8.60;99.90;;;;;;5086118;28;20044;-73
2022/11/12 01:11:15;;;;;;;0.20;0.20;;;8.50;99.90;;;;;;5088167;28;20082;-73
2022/11/12 01:13:43;;;;;;;0.20;0.20;;;8.60;99.90;;;;;;5085051;28;20047;-73
2022/11/12 01:16:15;;;;;;;0.20;0.20;;;8.50;99.90;;;;;;5081416;28;20036;-73
2022/11/12 01:18:41;;;;;;;0.10;0.10;;;8.60;99.90;;;;;;5088165;28;20119;-73
2022/11/12 01:21:07;;;;;;;0.10;0.10;;;8.60;99.90;;;;;;5084251;28;20046;-73
2022/11/12 01:23:35;;;;;;;0.10;0.10;;;8.50;99.90;;;;;;5106400;28;20119;-73
2022/11/12 01:26:06;;;;;;;0.15;0.15;;;8.80;99.90;;;;;;5083730;28;20046;-73
2022/11/12 01:28:32;;;;;;;0.20;0.20;;;8.60;99.90;;;;;;5084555;28;20056;-72
2022/11/12 01:31:12;;;;;;;0.20;0.20;;;8.50;99.90;;;;;;5088142;28;20306;-73
2022/11/12 01:33:39;;;;;;;0.20;0.20;;;8.50;99.90;;;;;;5085659;28;20083;-73
2022/11/12 01:36:05;;;;;;;0.20;0.20;;;8.40;99.90;;;;;;5088775;28;20525;-73
2022/11/12 01:38:36;;;;;;;0.20;0.20;;;8.40;99.90;;;;;;5085131;28;20146;-73
2022/11/12 01:41:02;;;;;;;0.20;0.20;;;8.30;99.90;;;;;;5086063;28;20547;-74
2022/11/12 01:43:27;;;;;;;0.20;0.20;;;8.30;99.90;;;;;;5086164;28;20040;-73
2022/11/12 01:45:53;;;;;;;0.20;0.20;;;8.30;99.90;;;;;;5089225;28;20040;-73
2022/11/12 01:48:28;;;;;;;0.20;0.20;;;8.30;99.90;;;;;;5085378;28;20506;-73
2022/11/12 01:50:56;;;;;;;0.10;0.10;;;8.30;99.90;;;;;;5091210;28;20047;-73
2022/11/12 01:53:27;;;;;;;0.20;0.20;;;8.20;99.90;;;;;;5116349;27;20055;-73
2022/11/12 01:55:54;;;;;;;0.20;0.20;;;8.20;99.90;;;;;;5092497;28;20040;-73
2022/11/12 01:58:24;;;;;;;0.20;0.20;;;8.10;99.90;;;;;;5088051;28;20106;-73
2022/11/12 02:00:50;;;;;;;0.20;0.20;;;8.00;99.90;;;;;;5086712;28;20036;-73
2022/11/12 02:03:21;;;;;;;0.17;0.17;;;8.00;99.90;;;;;;5089731;28;20541;-73
2022/11/12 02:05:50;;;;;;;0.10;0.10;;;8.00;99.90;;;;;;5090884;28;20048;-74
2022/11/12 02:08:16;;;;;;;0.20;0.20;;;8.00;99.90;;;;;;5088348;28;20051;-74
2022/11/12 02:10:42;;;;;;;0.20;0.20;;;7.90;99.90;;;;;;5091377;28;20081;-73
2022/11/12 02:15:52;;;;;;;0.20;0.20;;;7.90;99.90;;;;;;5082051;28;20040;-74
2022/11/12 02:18:18;;;;;;;0.20;0.20;;;7.80;99.90;;;;;;5090202;28;20119;-73
2022/11/12 02:20:43;;;;;;;0.17;0.17;;;7.70;99.90;;;;;;5090385;28;20122;-73
2022/11/12 02:23:09;;;;;;;0.20;0.20;;;7.70;99.90;;;;;;5090719;28;20036;-73
2022/11/12 02:25:35;;;;;;;0.15;0.15;;;7.70;99.90;;;;;;5090946;28;20131;-73
2022/11/12 02:28:05;;;;;;;0.20;0.20;;;7.70;99.90;;;;;;5086192;28;20032;-73
2022/11/12 02:30:34;;;;;;;0.20;0.20;;;7.70;99.90;;;;;;5088999;28;20087;-74
2022/11/12 02:33:00;;;;;;;0.20;0.20;;;7.90;99.90;;;;;;5084985;28;20052;-73
2022/11/12 02:35:26;;;;;;;0.20;0.20;;;7.60;99.90;;;;;;5090339;28;20173;-73
2022/11/12 02:37:52;;;;;;;0.13;0.13;;;7.60;99.90;;;;;;5090683;28;20051;-73
2022/11/12 02:40:17;;;;;;;0.20;0.20;;;7.50;99.90;;;;;;5087816;28;20039;-73
2022/11/12 02:42:43;;;;;;;0.20;0.20;;;7.50;99.90;;;;;;5095340;28;20087;-74
2022/11/12 02:45:09;;;;;;;0.20;0.20;;;7.40;99.90;;;;;;5090862;28;20400;-73
2022/11/12 02:47:35;;;;;;;0.20;0.20;;;7.40;99.90;;;;;;5089713;28;20042;-73
2022/11/12 02:50:00;;;;;;;0.20;0.20;;;7.40;99.90;;;;;;5089345;28;20037;-73
2022/11/12 02:52:26;;;;;;;0.20;0.20;;;7.30;99.90;;;;;;5091359;28;20126;-74
2022/11/12 02:54:51;;;;;;;0.10;0.10;;;7.30;99.90;;;;;;5090522;28;20066;-74
2022/11/12 02:57:17;;;;;;;0.13;0.13;;;7.30;99.90;;;;;;5087413;28;20036;-73
2022/11/12 02:59:43;;;;;;;0.10;0.10;;;7.40;99.90;;;;;;5078098;28;20032;-73
2022/11/12 03:02:08;;;;;;;0.20;0.20;;;7.30;99.90;;;;;;5089069;28;20584;-73
2022/11/12 03:04:34;;;;;;;0.20;0.20;;;7.30;99.90;;;;;;5082901;28;20117;-73
2022/11/12 03:06:59;;;;;;;0.20;0.20;;;7.30;99.90;;;;;;5090831;28;20360;-73
2022/11/12 03:09:26;;;;;;;0.20;0.20;;;7.30;99.90;;;;;;5093469;28;20044;-73
2022/11/12 03:11:51;;;;;;;0.20;0.20;;;7.20;99.90;;;;;;5087741;28;20437;-73
2022/11/12 03:14:17;;;;;;;0.20;0.20;;;7.20;99.90;;;;;;5087733;28;20032;-74
2022/11/12 03:16:43;;;;;;;0.20;0.20;;;7.40;99.90;;;;;;5083998;28;20052;-73
2022/11/12 03:19:08;;;;;;;0.20;0.20;;;7.20;99.90;;;;;;5079944;28;20101;-74
2022/11/12 03:21:34;;;;;;;0.20;0.20;;;7.30;99.90;;;;;;5085215;28;20040;-73
2022/11/12 03:24:00;;;;;;;0.20;0.20;;;7.20;99.90;;;;;;5081144;28;20121;-74
2022/11/12 03:26:26;;;;;;;0.20;0.20;;;7.10;99.90;;;;;;5079353;28;20042;-73
2022/11/12 03:28:52;;;;;;;0.20;0.20;;;7.10;99.90;;;;;;5084082;28;20365;-73
2022/11/12 03:31:17;;;;;;;0.20;0.20;;;7.10;99.90;;;;;;5088523;28;20051;-73
2022/11/12 03:33:43;;;;;;;0.20;0.20;;;7.10;99.90;;;;;;5089322;28;20040;-73
2022/11/12 03:36:09;;;;;;;0.20;0.20;;;7.00;99.90;;;;;;5085768;28;20109;-73
2022/11/12 03:38:34;;;;;;;0.20;0.20;;;7.00;99.90;;;;;;5089186;28;20035;-73
2022/11/12 03:41:00;;;;;;;0.20;0.20;;;7.00;99.90;;;;;;5089901;28;20071;-73
2022/11/12 03:43:25;;;;;;;0.20;0.20;;;7.00;99.90;;;;;;5087332;28;20052;-73
2022/11/12 03:45:51;;;;;;;0.10;0.10;;;6.90;99.90;;;;;;5088448;28;20047;-74
2022/11/12 03:48:17;;;;;;;0.20;0.20;;;6.90;99.90;;;;;;5088290;28;20039;-74
2022/11/12 03:50:42;;;;;;;0.20;0.20;;;6.90;99.90;;;;;;5085381;28;20540;-73
2022/11/12 03:53:08;;;;;;;0.20;0.20;;;6.80;99.90;;;;;;5087696;28;20036;-73
2022/11/12 03:55:34;;;;;;;0.10;0.10;;;6.80;99.90;;;;;;5089345;28;20085;-72
2022/11/12 03:58:00;;;;;;;0.20;0.20;;;6.80;99.90;;;;;;5089328;28;20067;-73
2022/11/12 04:00:27;;;;;;;0.20;0.20;;;6.80;99.90;;;;;;5081473;28;20083;-72
2022/11/12 04:02:53;;;;;;;0.20;0.20;;;6.80;99.90;;;;;;5084210;28;20044;-72
2022/11/12 04:10:53;;;;;;;0.20;0.20;;;6.80;99.90;;;;;;5088144;28;20479;-72
2022/11/12 04:13:27;;;;;;;0.20;0.20;;;6.80;99.90;;;;;;5087181;28;20313;-72
2022/11/12 04:27:10;;;;;;;0.20;0.20;;;6.60;99.90;;;;;;5089273;28;20043;-72
2022/11/12 04:32:21;;;;;;;0.17;0.17;;;6.60;99.90;;;;;;5079787;28;20066;-72
2022/11/12 04:34:46;;;;;;;0.10;0.10;;;6.60;99.90;;;;;;5081165;28;20044;-72
2022/11/12 04:37:12;;;;;;;0.20;0.20;;;6.90;99.90;;;;;;5079509;28;20090;-72
2022/11/12 04:39:38;;;;;;;0.20;0.20;;;6.60;99.90;;;;;;5079908;28;20047;-72
2022/11/12 04:45:04;;;;;;;0.15;0.15;;;6.60;99.90;;;;;;5082392;28;20076;-72
2022/11/12 04:47:34;;;;;;;0.20;0.20;;;6.50;99.90;;;;;;5076782;28;20044;-72
2022/11/12 04:50:01;;;;;;;0.15;0.15;;;6.40;99.90;;;;;;5084352;28;20036;-72
2022/11/12 04:52:28;;;;;;;0.20;0.20;;;6.40;99.90;;;;;;5080632;28;20045;-72
2022/11/12 04:54:54;;;;;;;0.20;0.20;;;6.40;99.90;;;;;;5079745;28;20051;-72
2022/11/12 04:57:20;;;;;;;0.20;0.20;;;6.40;99.90;;;;;;5083050;28;20044;-72
2022/11/12 04:59:46;;;;;;;0.20;0.20;;;6.40;99.90;;;;;;5084085;28;20036;-72
2022/11/12 05:02:12;;;;;;;0.20;0.20;;;6.40;99.90;;;;;;5078448;28;20049;-72
2022/11/12 05:04:38;;;;;;;0.20;0.20;;;6.40;99.90;;;;;;5078607;28;20044;-72
2022/11/12 05:07:07;;;;;;;0.20;0.20;;;6.40;99.90;;;;;;5083396;28;20135;-72
2022/11/12 05:09:32;;;;;;;0.20;0.20;;;6.30;99.90;;;;;;5084611;28;20066;-73
2022/11/12 05:11:58;;;;;;;0.20;0.20;;;6.40;99.90;;;;;;5084122;28;20097;-72
2022/11/12 05:14:24;;;;;;;0.20;0.20;;;6.40;99.90;;;;;;5080538;28;20044;-73
2022/11/12 05:16:50;;;;;;;0.20;0.20;;;6.40;99.90;;;;;;5080947;28;20047;-74
2022/11/12 05:19:16;;;;;;;0.10;0.10;;;6.30;99.90;;;;;;5075557;28;20127;-73
2022/11/12 05:24:26;;;;;;;0.10;0.10;;;6.30;99.90;;;;;;5076593;28;20052;-73
2022/11/12 05:26:52;;;;;;;0.20;0.20;;;6.30;99.90;;;;;;5084995;28;20465;-73
2022/11/12 05:29:18;;;;;;;0.20;0.20;;;6.30;99.90;;;;;;5077276;28;20066;-72
2022/11/12 05:31:44;;;;;;;0.20;0.20;;;6.30;99.90;;;;;;5082971;28;20040;-73
2022/11/12 05:34:11;;;;;;;0.20;0.20;;;6.30;99.90;;;;;;5082558;28;20047;-73
2022/11/12 05:36:36;;;;;;;0.20;0.20;;;6.30;99.90;;;;;;5086052;28;20051;-73
2022/11/12 05:39:03;;;;;;;0.20;0.20;;;6.30;99.90;;;;;;5097776;28;20127;-73
2022/11/12 05:41:29;;;;;;;0.20;0.20;;;6.30;99.90;;;;;;5090518;28;20051;-72
2022/11/12 05:43:55;;;;;;;0.10;0.10;;;6.30;99.90;;;;;;5093652;28;20395;-73
2022/11/12 05:46:20;;;;;;;0.20;0.20;;;6.30;99.90;;;;;;5087062;28;20036;-73
2022/11/12 05:48:46;;;;;;;0.20;0.20;;;6.30;99.90;;;;;;5089621;28;20032;-73
2022/11/12 05:51:12;;;;;;;0.20;0.20;;;6.20;99.90;;;;;;5085758;28;20048;-73
2022/11/12 05:53:38;;;;;;;0.20;0.20;;;6.30;99.90;;;;;;5082796;28;20040;-73
2022/11/12 05:56:05;;;;;;;0.20;0.20;;;6.40;99.90;;;;;;5089049;27;20051;-73
2022/11/12 05:58:31;;;;;;;0.10;0.10;;;6.20;99.90;;;;;;5093638;28;20655;-73
2022/11/12 06:00:58;;;;;;;0.20;0.20;;;6.20;99.90;;;;;;5084185;28;20163;-73
2022/11/12 06:03:24;;;;;;;0.20;0.20;;;6.10;99.90;;;;;;5085943;28;20064;-72
2022/11/12 06:05:50;;;;;;;0.20;0.20;;;6.10;99.90;;;;;;5089233;28;20059;-72
2022/11/12 06:08:16;;;;;;;0.20;0.20;;;6.10;99.90;;;;;;5091037;28;20502;-73
2022/11/12 06:10:42;;;;;;;0.20;0.20;;;6.80;99.90;;;;;;5089067;28;20036;-72
2022/11/12 06:13:07;;;;;;;0.20;0.20;;;6.10;99.90;;;;;;5090807;28;20136;-72
2022/11/12 06:15:33;;;;;;;0.20;0.20;;;6.10;99.90;;;;;;5089904;28;20549;-73
2022/11/12 06:17:59;;;;;;;0.15;0.15;;;6.10;99.90;;;;;;5090384;28;20556;-73
2022/11/12 06:20:24;;;;;;;0.20;0.20;;;6.10;99.90;;;;;;5084917;28;20082;-73
2022/11/12 06:22:50;;;;;;;0.20;0.20;;;6.10;99.90;;;;;;5091352;28;20064;-73
2022/11/12 06:25:16;;;;;;;0.20;0.20;;;6.10;99.90;;;;;;5086424;28;20036;-74
2022/11/12 06:27:42;;;;;;;0.17;0.17;;;6.10;99.90;;;;;;5081604;28;20039;-72
2022/11/12 06:30:09;;;;;;;0.20;0.20;;;6.10;99.90;;;;;;5089028;28;20113;-72
2022/11/12 06:32:35;;;;;;;0.20;0.20;;;6.10;99.90;;;;;;5088908;28;20115;-72
2022/11/12 06:35:01;;;;;;;0.10;0.10;;;6.10;99.90;;;;;;5085894;28;20040;-72
2022/11/12 06:37:26;;;;;;;0.20;0.20;;;6.10;99.90;;;;;;5083527;28;20098;-72
2022/11/12 06:39:52;;;;;;;0.20;0.20;;;6.10;99.90;;;;;;5081006;28;20063;-72
2022/11/12 06:42:18;;;;;;;0.20;0.20;;;6.10;99.90;;;;;;5090927;28;20040;-72
2022/11/12 06:44:43;;;;;;;0.20;0.20;;;6.00;99.90;;;;;;5083074;28;20040;-72
2022/11/12 06:47:10;;;;;;;0.17;0.17;;;6.00;99.90;;;;;;5091008;28;20353;-73
2022/11/12 06:49:35;;;;;;;0.20;0.20;;;6.00;99.90;;;;;;5081008;28;20243;-72
2022/11/12 06:52:01;;;;;;;0.20;0.20;;;6.00;99.90;;;;;;5083491;28;20557;-73
2022/11/12 06:54:27;;;;;;;0.20;0.20;;;6.00;99.90;;;;;;5092916;28;20138;-73
2022/11/12 06:56:53;;;;;;;0.15;0.15;;;5.90;99.90;;;;;;5092842;28;20105;-73
2022/11/12 06:59:18;;;;;;;0.20;0.20;;;5.90;99.90;;;;;;5092176;28;20474;-73
2022/11/12 07:01:44;;;;;;;0.15;0.15;;;5.90;99.90;;;;;;5085931;28;20119;-72
2022/11/12 07:04:10;;;;;;;0.20;0.20;;;5.90;99.90;;;;;;5081327;28;20105;-73
2022/11/12 07:06:36;;;;;;;0.13;0.13;;;5.90;99.90;;;;;;5091820;28;20043;-72
2022/11/12 07:09:03;;;;;;;0.20;0.20;;;5.90;99.90;;;;;;5088892;28;20036;-73
2022/11/12 07:11:29;;;;;;;0.15;0.15;;;5.90;99.90;;;;;;5090839;28;20105;-73
2022/11/12 07:13:55;;;;;;;0.10;0.10;;;5.90;99.90;;;;;;5083015;28;20491;-72
2022/11/12 07:16:21;;;;;;;0.20;0.20;;;5.80;99.90;;;;;;5078482;28;20056;-72
2022/11/12 07:18:51;;;;;;;0.20;0.20;;;5.90;99.90;;;;;;5086894;28;20118;-73
2022/11/12 07:21:19;;;;;;;0.10;0.10;;;5.90;99.90;;;;;;5080714;28;20040;-73
2022/11/12 07:23:46;;;;;;;0.20;0.20;;;6.00;99.90;;;;;;5086296;28;20093;-73
2022/11/12 07:26:17;;;;;;;0.20;0.20;;;5.90;99.90;;;;;;5106029;27;20044;-73
2022/11/12 07:28:48;;;;;;;0.20;0.20;;;5.90;99.90;;;;;;5086148;28;20032;-73
2022/11/12 07:31:16;;;;;;;0.20;0.20;;;5.90;99.90;;;;;;5088002;28;20063;-72
2022/11/12 07:33:42;;;;;;;0.20;0.20;;;5.90;99.90;;;;;;5083908;28;20086;-72
2022/11/12 07:36:15;;;;;;;0.20;0.20;;;6.00;99.90;;;;;;5081389;28;20442;-73
2022/11/12 07:38:42;;;;;;;0.20;0.20;;;6.00;99.90;;;;;;5091968;28;20036;-72
2022/11/12 07:41:13;;;;;;;0.20;0.20;;;6.10;99.90;;;;;;5083176;28;20407;-72
2022/11/12 07:43:40;;;;;;;0.20;0.20;;;5.90;99.90;;;;;;5079105;28;20044;-72
2022/11/12 07:46:09;;;;;;;0.20;0.20;;;5.90;99.90;;;;;;5085640;28;20047;-73
2022/11/12 07:48:35;;;;;;;0.20;0.20;;;5.90;99.90;;;;;;5084677;28;20101;-75
2022/11/12 07:51:34;;;;;;;0.20;0.20;;;6.00;99.90;;;;;;5085905;28;20119;-73
2022/11/12 07:53:59;;;;;;;0.20;0.20;;;6.00;99.90;;;;;;5071581;28;20052;-74
2022/11/12 07:56:26;;;;;;;0.20;0.20;;;5.90;99.90;;;;;;5089188;28;20089;-73
2022/11/12 07:58:52;;;;;;;0.20;0.20;;;6.00;99.90;;;;;;5080146;28;20389;-74
2022/11/12 08:01:29;;;;;;;0.17;0.17;;;6.00;99.90;;;;;;5075942;28;20097;-72
2022/11/12 08:03:56;;;;;;;0.20;0.20;;;6.00;99.90;;;;;;5076171;28;20097;-73
2022/11/12 08:06:21;;;;;;;0.20;0.20;;;6.10;99.90;;;;;;5077619;28;20079;-73
2022/11/12 08:08:50;;;;;;;0.20;0.20;;;6.10;99.90;;;;;;5089784;28;20079;-75
2022/11/12 08:11:15;;;;;;;0.20;0.20;;;6.20;99.90;;;;;;5087771;28;20032;-73
2022/11/12 08:13:41;;;;;;;0.10;0.10;;;6.20;99.90;;;;;;5073039;28;20048;-74
2022/11/12 08:16:07;;;;;;;0.20;0.20;;;6.20;99.90;;;;;;5079083;28;20049;-74
2022/11/12 08:18:33;;;;;;;0.20;0.20;;;6.30;99.90;;;;;;5085899;28;20051;-73
2022/11/12 08:21:04;;;;;;;0.20;0.20;;;6.40;99.90;;;;;;5092475;28;20047;-73
2022/11/12 08:23:30;;;;;;;0.10;0.10;;;6.40;99.90;;;;;;5082026;28;20079;-74
2022/11/12 08:25:59;;;;;;;0.20;0.20;;;6.40;99.90;;;;;;5088936;28;20101;-74
2022/11/12 08:28:27;;;;;;;0.20;0.20;;;6.50;99.90;;;;;;5083578;28;20048;-73
2022/11/12 08:30:52;;;;;;;0.20;0.20;;;6.50;99.90;;;;;;5075227;28;20044;-73
2022/11/12 08:33:18;;;;;;;0.20;0.20;;;6.50;99.90;;;;;;5075608;28;20124;-74
2022/11/12 08:35:44;;;;;;;0.20;0.20;;;6.60;99.90;;;;;;5074451;28;20474;-73
2022/11/12 08:38:10;;;;;;;0.20;0.20;;;6.60;99.90;;;;;;5073322;28;20041;-72
2022/11/12 08:40:36;;;;;;;0.10;0.10;;;6.70;99.90;;;;;;5080577;28;20720;-73
2022/11/12 08:43:04;;;;;;;0.10;0.10;;;6.70;99.90;;;;;;5079015;28;20044;-73
2022/11/12 08:45:38;;;;;;;0.20;0.20;;;6.80;99.90;;;;;;5074121;28;20043;-72
2022/11/12 08:48:09;;;;;;;0.45;0.30;;;6.90;99.90;;;;;;5087684;28;20040;-73
2022/11/12 08:50:36;;;;;;;0.20;0.20;;;6.90;99.90;;;;;;5080074;28;20071;-74
2022/11/12 08:53:07;;;;;;;0.15;0.15;;;6.90;99.90;;;;;;5071825;28;20093;-73
2022/11/12 08:55:33;;;;;;;;;;;7.00;99.90;;;;;;5081601;28;20044;-73
2022/11/12 08:58:02;;;;;;;0.20;0.20;;;7.00;99.90;;;;;;5076133;28;19928;-73
2022/11/12 09:00:29;;;;;;;0.20;0.20;;;7.10;99.90;;;;;;5082885;28;20048;-73
2022/11/12 09:02:58;;;;;;;0.10;0.10;;;7.30;99.90;;;;;;5084891;28;20130;-73
2022/11/12 09:05:24;;;;;;;0.20;0.20;;;7.20;99.90;;;;;;5078484;28;20120;-73
2022/11/12 09:07:59;;;;;;;0.10;0.10;;;7.30;99.90;;;;;;5085952;28;20122;-72
2022/11/12 09:10:25;;;;;;;0.10;0.10;;;7.30;99.90;;;;;;5076450;28;20040;-72
2022/11/12 09:12:54;;;;;;;0.20;0.20;;;7.40;99.90;;;;;;5085809;28;20176;-72
2022/11/12 09:15:22;;;;;;;0.10;0.10;;;7.40;99.90;;;;;;5083404;28;20036;-71
2022/11/12 09:18:00;;;;;;;0.10;0.10;;;7.60;99.90;;;;;;5085442;28;20477;-72
2022/11/12 09:20:27;;;;;;;0.20;0.20;;;7.50;99.90;;;;;;5081964;28;20411;-74
2022/11/12 09:22:56;;;;;;;0.13;0.13;;;7.60;99.90;;;;;;5077563;28;20442;-71
2022/11/12 09:25:22;;;;;;;0.13;0.13;;;7.90;99.90;;;;;;5085257;28;20055;-71
2022/11/12 09:27:47;;;;;;;0.20;0.20;;;7.70;99.90;;;;;;5086809;28;20035;-71
2022/11/12 09:30:13;;;;;;;0.10;0.10;;;7.80;99.90;;;;;;5083142;28;20044;-71
2022/11/12 09:32:39;;;;;;;0.20;0.20;;;7.80;99.90;;;;;;5074253;28;20748;-72
2022/11/12 09:35:05;;;;;;;0.20;0.20;;;7.80;99.90;;;;;;5082521;28;20039;-71
2022/11/12 09:37:31;;;;;;;0.20;0.20;;;7.90;99.90;;;;;;5083513;28;20044;-71
2022/11/12 09:39:56;;;;;;;0.10;0.10;;;7.90;99.90;;;;;;5075715;28;20399;-74
2022/11/12 09:42:22;;;;;;;0.10;0.10;;;8.10;99.90;;;;;;5078206;28;20044;-72
2022/11/12 09:45:04;;;;;;;0.20;0.20;;;8.00;99.90;;;;;;5074871;28;20045;-72
2022/11/12 09:47:37;;;;;;;0.20;0.20;;;8.10;99.90;;;;;;5075358;28;20040;-72
2022/11/12 09:50:28;;;;;;;0.20;0.20;;;8.20;99.90;;;;;;5079243;28;20522;-72
2022/11/12 09:53:13;;;;;;;0.20;0.20;;;8.20;99.90;;;;;;5078056;28;20044;-72
2022/11/12 09:55:46;;;;;;;0.15;0.15;;;8.20;99.90;;;;;;5077059;28;20086;-73
2022/11/12 09:58:14;;;;;;;0.10;0.10;;;8.30;99.90;;;;;;5081690;28;20089;-73
2022/11/12 10:00:51;;;;;;;0.28;0.28;;;8.30;99.90;;;;;;5074256;28;20136;-72
2022/11/12 10:03:33;;;;;;;0.20;0.20;;;8.40;99.90;;;;;;5075673;28;20036;-73
2022/11/12 10:06:21;;;;;;;0.10;0.10;;;8.40;99.90;;;;;;5076964;28;20261;-73
2022/11/12 10:09:12;;;;;;;0.20;0.20;;;8.40;99.90;;;;;;5111437;28;20044;-73
2022/11/12 10:18:49;;;;;;;0.15;0.15;;;8.50;99.90;;;;;;5016783;28;20159;-73
2022/11/12 10:21:27;;;;;;;0.10;0.10;;;8.60;99.90;;;;;;5002038;28;20046;-74
2022/11/12 10:23:53;;;;;;;0.10;0.10;;;8.60;99.90;;;;;;5076488;28;20044;-74
2022/11/12 10:26:21;;;;;;;0.20;0.20;;;8.50;99.90;;;;;;5080674;28;21017;-74
2022/11/12 10:28:54;;;;;;;0.20;0.20;;;8.60;99.90;;;;;;5071961;28;20048;-74
2022/11/12 10:31:20;;;;;;;0.20;0.20;;;8.60;99.90;;;;;;5080379;28;20067;-73
2022/11/12 10:33:46;;;;;;;0.20;0.20;;;8.80;99.90;;;;;;5079158;28;20048;-73
2022/11/12 10:36:34;;;;;;;0.10;0.10;;;8.60;99.90;;;;;;5088193;28;20092;-74
2022/11/12 10:39:00;;;;;;;0.10;0.10;;;8.60;99.90;;;;;;5090516;28;20036;-75
2022/11/12 10:41:29;;;;;;;0.10;0.10;;;8.60;99.90;;;;;;5085900;28;20032;-74
2022/11/12 10:43:59;;;;;;;0.20;0.20;;;8.60;99.90;;;;;;5075114;28;20051;-74
2022/11/12 10:46:34;;;;;;;0.10;0.10;;;8.60;99.90;;;;;;5086508;28;20047;-74
2022/11/12 10:49:03;;;;;;;0.10;0.10;;;8.60;99.90;;;;;;5082235;28;20507;-74
2022/11/12 10:51:34;;;;;;;0.20;0.20;;;8.60;99.90;;;;;;5083386;28;20059;-75
2022/11/12 10:54:26;;;;;;;0.10;0.10;;;8.60;99.90;;;;;;5086626;28;20130;-74
2022/11/12 10:56:52;;;;;;;0.10;0.10;;;8.70;99.90;;;;;;5097669;28;20048;-74
2022/11/12 10:59:20;;;;;;;0.20;0.20;;;8.70;99.90;;;;;;5090083;28;20040;-74
2022/11/12 11:01:57;;;;;;;0.40;0.40;;;8.60;99.90;;;;;;5084464;28;21385;-73
2022/11/12 11:04:35;;;;;;;0.20;0.20;;;9.30;99.90;;;;;;5080875;28;20066;-76
2022/11/12 11:07:05;;;;;;;0.10;0.10;;;8.60;99.90;;;;;;5074606;28;20041;-75
2022/11/12 11:09:32;;;;;;;0.20;0.20;;;8.70;99.90;;;;;;5086720;28;20044;-75
2022/11/12 11:11:58;;;;;;;0.13;0.13;;;8.70;99.90;;;;;;5088741;28;20310;-75
2022/11/12 11:14:30;;;;;;;0.10;0.10;;;8.70;99.90;;;;;;5079081;28;20036;-74
2022/11/12 11:17:07;;;;;;;0.20;0.20;;;9.10;99.90;;;;;;5086436;28;20043;-74
2022/11/12 11:19:42;;;;;;;0.20;0.20;;;9.00;99.90;;;;;;5087852;28;20039;-74
2022/11/12 11:22:28;;;;;;;0.10;0.10;;;9.10;99.90;;;;;;5090906;28;20067;-74
2022/11/12 11:25:10;;;;;;;0.20;0.20;;;8.80;99.90;;;;;;5073677;28;20446;-73
2022/11/12 11:28:11;;;;;;;0.20;0.20;;;8.80;99.90;;;;;;5087012;28;20253;-74
2022/11/12 11:31:07;;;;;;;0.30;0.30;;;8.80;99.90;;;;;;5081606;28;20121;-75
2022/11/12 11:33:47;;;;;;;0.20;0.20;;;8.80;99.90;;;;;;5063881;28;20048;-74
2022/11/12 11:36:29;;;;;;;0.20;0.20;;;8.70;99.90;;;;;;5083643;28;20079;-75
2022/11/12 11:39:04;;;;;;;0.20;0.20;;;8.70;99.90;;;;;;5081967;28;20926;-74
2022/11/12 11:41:51;;;;;;;0.20;0.20;;;8.70;99.90;;;;;;5087970;28;20063;-75
2022/11/12 11:44:51;;;;;;;0.20;0.20;;;8.80;99.90;;;;;;5080154;28;20493;-74
2022/11/12 11:47:29;;;;;;;0.10;0.10;;;8.90;99.90;;;;;;5080481;28;20492;-75
2022/11/12 11:50:13;;;;;;;0.20;0.20;;;8.80;99.90;;;;;;5081509;28;20403;-75
2022/11/12 11:52:59;;;;;;;0.10;0.10;;;8.90;99.90;;;;;;5085452;28;20135;-74
2022/11/12 11:55:34;;;;;;;0.20;0.20;;;8.90;99.90;;;;;;5082127;28;20040;-74
2022/11/12 11:58:19;;;;;;;0.10;0.10;;;8.90;99.90;;;;;;5085669;28;20050;-74
2022/11/12 12:00:46;;;;;;;0.20;0.20;;;9.00;99.90;;;;;;5089730;28;20044;-75
2022/11/12 12:03:23;;;;;;;0.20;0.20;;;9.40;99.90;;;;;;5088065;28;20044;-75
2022/11/12 12:05:48;;;;;;;0.10;0.10;;;9.10;99.90;;;;;;5089427;28;20429;-75
2022/11/12 12:08:25;;;;;;;0.10;0.10;;;9.00;99.90;;;;;;5082526;28;20181;-73
2022/11/12 12:11:20;;;;;;;0.20;0.20;;;8.70;99.90;;;;;;5086739;28;20051;-74
2022/11/12 12:14:10;;;;;;;0.20;0.20;;;8.90;99.90;;;;;;5080257;28;20048;-75
2022/11/12 12:17:08;;;;;;;0.20;0.20;;;9.00;99.90;;;;;;5088691;28;20504;-74
2022/11/12 12:19:55;;;;;;;0.20;0.20;;;9.00;99.90;;;;;;5083524;28;20824;-74
2022/11/12 12:22:34;;;;;;;0.20;0.20;;;9.00;99.90;;;;;;5083332;28;20156;-73
2022/11/12 12:25:08;;;;;;;0.17;0.17;;;9.00;99.90;;;;;;5082223;28;20047;-74
2022/11/12 12:27:37;;;;;;;0.20;0.20;;;9.10;99.90;;;;;;5080634;28;20055;-76
2022/11/12 12:30:18;;;;;;;0.15;0.15;;;9.10;99.90;;;;;;5085372;28;20132;-74
2022/11/12 12:33:06;;;;;;;0.10;0.10;;;9.10;99.90;;;;;;5079545;28;20146;-74
2022/11/12 12:35:54;;;;;;;0.10;0.10;;;9.20;99.90;;;;;;5078310;28;21844;-74
2022/11/12 12:38:49;;;;;;;0.20;0.20;;;9.20;99.90;;;;;;5079913;28;20051;-79
2022/11/12 12:41:46;;;;;;;0.20;0.20;;;9.10;99.90;;;;;;5080655;28;20056;-75
2022/11/12 12:44:12;;;;;;;0.10;0.10;;;9.20;99.90;;;;;;5075831;28;20071;-74
2022/11/12 12:46:55;;;;;;;0.10;0.10;;;9.70;99.90;;;;;;5088070;28;20507;-73
2022/11/12 12:49:31;;;;;;;0.20;0.20;;;9.30;99.90;;;;;;5081301;28;20449;-75
2022/11/12 12:51:58;;;;;;;0.20;0.20;;;9.30;99.90;;;;;;5080235;28;20194;-74
2022/11/12 12:54:39;;;;;;;0.13;0.13;;;9.30;99.90;;;;;;5078125;28;20090;-75
2022/11/12 12:57:43;;;;;;;0.10;0.10;;;9.30;99.90;;;;;;5080726;28;20048;-75
2022/11/12 13:00:30;;;;;;;0.10;0.10;;;9.40;99.90;;;;;;5085786;28;20043;-75
2022/11/12 13:02:56;;;;;;;0.20;0.20;;;9.40;99.90;;;;;;5111290;27;20048;-75
2022/11/12 13:05:28;;;;;;;0.10;0.10;;;9.60;99.90;;;;;;5082149;28;20567;-74
2022/11/12 13:07:57;;;;;;;0.10;0.10;;;9.80;99.90;;;;;;5079866;28;20083;-74
2022/11/12 13:10:38;;;;;;;0.20;0.20;;;10.00;99.90;;;;;;5080372;28;20248;-74
2022/11/12 13:13:25;;;;;;;0.10;0.10;;;9.60;99.90;;;;;;5083521;28;20055;-75
2022/11/12 13:15:56;;;;;;;0.20;0.20;;;9.60;99.90;;;;;;5085716;28;20040;-74
2022/11/12 13:18:50;;;;;;;0.20;0.20;;;9.70;99.90;;;;;;5082539;28;20089;-75
2022/11/12 13:21:16;;;;;;;0.20;0.20;;;9.70;99.90;;;;;;5063404;28;20041;-74
2022/11/12 13:24:07;;;;;;;0.20;0.20;;;9.80;99.90;;;;;;5081455;28;20050;-74
2022/11/12 13:26:54;;;;;;;0.20;0.20;;;9.80;99.90;;;;;;5073460;28;20192;-73
2022/11/12 13:29:26;;;;;;;0.10;0.10;;;9.80;99.90;;;;;;5076222;28;20143;-75
2022/11/12 13:32:10;;;;;;;;;;;9.90;99.90;;;;;;5085955;28;20447;-75
2022/11/12 13:34:36;;;;;;;0.17;0.17;;;9.90;99.90;;;;;;5082205;28;19934;-74
2022/11/12 13:37:04;;;;;;;0.10;0.10;;;10.00;99.90;;;;;;5079916;28;20387;-74
2022/11/12 13:39:35;;;;;;;0.20;0.20;;;10.00;99.90;;;;;;5086879;28;20126;-75
2022/11/12 13:44:59;;;;;;;0.10;0.10;;;10.00;99.90;;;;;;5083105;28;20081;-75
2022/11/12 13:47:28;;;;;;;0.13;0.13;;;9.90;99.90;;;;;;5085309;28;20052;-74
2022/11/12 13:49:57;;;;;;;0.10;0.10;;;9.90;99.90;;;;;;5082059;28;20067;-74